Time;durP1;ratioP1;P1;durP2;ratioP2;P2;SDS_P1;SDS_P2;PMS_P1;PMS_P2;Temp;Humidity;BMP_temperature;BMP_pressure;BME280_temperature;BME280_humidity;BME280_pressure;Samples;Min_cycle;Max_cycle;Signal;HPM_P1;HPM_P2
2022/01/17 00:00:34;;;;;;;32.60;23.90;;;7.00;99.90;;;;;;5051696;28;20422;-48
2022/01/17 00:03:02;;;;;;;32.23;24.97;;;7.10;99.90;;;;;;5051594;28;20420;-48
2022/01/17 00:05:29;;;;;;;34.23;25.57;;;7.10;99.90;;;;;;5051320;28;20455;-49
2022/01/17 00:07:56;;;;;;;29.73;23.73;;;7.10;99.90;;;;;;5051152;28;20432;-48
2022/01/17 00:10:22;;;;;;;30.70;21.07;;;7.10;99.90;;;;;;5051423;28;20411;-49
2022/01/17 00:12:52;;;;;;;28.90;21.20;;;7.10;99.90;;;;;;5051538;28;20441;-50
2022/01/17 00:15:24;;;;;;;28.37;20.40;;;7.20;99.90;;;;;;5051460;28;20438;-50
2022/01/17 00:17:57;;;;;;;28.03;20.17;;;7.20;99.90;;;;;;5051173;28;20403;-50
2022/01/17 00:20:26;;;;;;;28.27;19.93;;;7.10;99.90;;;;;;5051476;28;20420;-47
2022/01/17 00:22:54;;;;;;;27.20;20.03;;;7.10;99.90;;;;;;5051478;28;20451;-50
2022/01/17 00:25:21;;;;;;;26.00;20.47;;;7.20;99.90;;;;;;5051371;28;20442;-47
2022/01/17 00:27:48;;;;;;;26.37;18.10;;;7.20;99.90;;;;;;5051043;28;20765;-47
2022/01/17 00:30:16;;;;;;;35.70;19.90;;;7.20;99.90;;;;;;5051317;28;20423;-47
2022/01/17 00:32:43;;;;;;;27.90;18.17;;;7.20;99.90;;;;;;5051108;28;20416;-47
2022/01/17 00:35:10;;;;;;;28.93;18.27;;;7.10;99.90;;;;;;5051201;28;20438;-48
2022/01/17 00:37:37;;;;;;;30.13;16.33;;;7.20;99.90;;;;;;5051367;28;20870;-48
2022/01/17 00:40:04;;;;;;;20.13;15.73;;;7.20;99.90;;;;;;5051416;28;20436;-47
2022/01/17 00:42:31;;;;;;;20.80;14.97;;;7.20;99.90;;;;;;5049996;28;20460;-48
2022/01/17 00:45:01;;;;;;;27.77;16.37;;;7.20;99.90;;;;;;5051112;28;20461;-48
2022/01/17 00:47:28;;;;;;;30.13;17.10;;;7.20;99.90;;;;;;5051305;28;20483;-48
2022/01/17 00:49:55;;;;;;;22.03;16.53;;;7.20;99.90;;;;;;5051740;28;20414;-48
2022/01/17 00:52:22;;;;;;;25.63;14.87;;;7.20;99.90;;;;;;5055103;28;20433;-49
2022/01/17 00:54:48;;;;;;;23.40;16.20;;;7.20;99.90;;;;;;5054862;28;20469;-48
2022/01/17 00:57:15;;;;;;;19.60;14.83;;;7.20;99.90;;;;;;5055030;28;20771;-49
2022/01/17 00:59:41;;;;;;;26.53;16.90;;;7.20;99.90;;;;;;5054623;28;20436;-49
2022/01/17 01:02:08;;;;;;;29.97;14.40;;;7.30;99.90;;;;;;5054914;28;20420;-49
2022/01/17 01:04:36;;;;;;;22.03;15.33;;;7.30;99.90;;;;;;5054776;28;20432;-49
2022/01/17 01:07:03;;;;;;;20.40;14.83;;;7.20;99.90;;;;;;5054741;28;20456;-49
2022/01/17 01:09:35;;;;;;;23.47;15.83;;;7.30;99.90;;;;;;5054512;28;20426;-48
2022/01/17 01:12:01;;;;;;;20.00;14.40;;;7.30;99.90;;;;;;5054778;28;20482;-49
2022/01/17 01:14:28;;;;;;;26.27;14.73;;;7.30;99.90;;;;;;5054513;28;20476;-49
2022/01/17 01:16:56;;;;;;;23.17;13.77;;;7.20;99.90;;;;;;5054836;28;20846;-49
2022/01/17 01:19:28;;;;;;;19.67;13.20;;;7.30;99.90;;;;;;5054251;28;20440;-49
2022/01/17 01:27:51;;;;;;;17.87;11.77;;;7.30;99.90;;;;;;5054302;28;20462;-49
2022/01/17 01:30:20;;;;;;;16.73;11.90;;;7.30;99.90;;;;;;5054481;28;20821;-49
2022/01/17 01:32:51;;;;;;;20.30;10.43;;;7.30;99.90;;;;;;5054265;28;20857;-48
2022/01/17 01:35:20;;;;;;;13.90;9.80;;;7.30;99.90;;;;;;5054217;28;20434;-49
2022/01/17 01:37:49;;;;;;;17.73;10.40;;;7.30;99.90;;;;;;5053738;28;20463;-49
2022/01/17 01:40:17;;;;;;;12.83;8.83;;;7.40;99.90;;;;;;5054165;28;20440;-49
2022/01/17 01:42:44;;;;;;;11.63;6.63;;;7.30;99.90;;;;;;5054098;28;20441;-49
2022/01/17 01:45:14;;;;;;;14.77;6.93;;;7.30;99.90;;;;;;5052694;28;20470;-50
2022/01/17 01:47:41;;;;;;;10.43;5.97;;;7.30;99.90;;;;;;5053522;28;20517;-49
2022/01/17 01:50:10;;;;;;;11.57;6.63;;;7.30;99.90;;;;;;5053943;28;20415;-50
2022/01/17 01:52:37;;;;;;;9.07;4.90;;;7.30;99.90;;;;;;5054014;28;20502;-49
2022/01/17 01:55:07;;;;;;;9.47;4.70;;;7.30;99.90;;;;;;5052436;28;20495;-49
2022/01/17 01:57:34;;;;;;;6.33;3.70;;;7.30;99.90;;;;;;5053896;28;20429;-49
2022/01/17 02:00:01;;;;;;;6.70;3.60;;;7.20;99.90;;;;;;5053282;28;20433;-48
2022/01/17 02:02:27;;;;;;;11.77;4.17;;;7.20;99.90;;;;;;5052454;28;20448;-49
2022/01/17 02:04:54;;;;;;;11.17;3.57;;;7.20;99.90;;;;;;5053647;28;20966;-48
2022/01/17 02:07:22;;;;;;;6.70;2.40;;;7.20;99.90;;;;;;5053860;28;20476;-48
2022/01/17 02:09:48;;;;;;;5.90;2.10;;;7.10;99.90;;;;;;5053381;28;20446;-49
2022/01/17 02:12:20;;;;;;;7.40;2.33;;;7.00;99.90;;;;;;5053838;28;20777;-49
2022/01/17 02:14:48;;;;;;;10.30;3.47;;;7.00;99.90;;;;;;5054052;28;20497;-49
2022/01/17 02:17:14;;;;;;;4.77;1.93;;;6.90;99.90;;;;;;5053529;28;20461;-49
2022/01/17 02:19:45;;;;;;;15.10;2.73;;;6.90;99.90;;;;;;5053059;28;20412;-49
2022/01/17 02:22:14;;;;;;;6.30;2.50;;;6.90;99.90;;;;;;5053606;28;20433;-49
2022/01/17 02:24:40;;;;;;;11.77;2.67;;;6.80;99.90;;;;;;5053285;28;20867;-49
2022/01/17 02:27:07;;;;;;;11.20;2.70;;;6.80;99.90;;;;;;5053204;28;20453;-49
2022/01/17 02:29:34;;;;;;;7.03;2.80;;;6.80;99.90;;;;;;5052937;28;20407;-49
2022/01/17 02:32:00;;;;;;;4.80;1.67;;;6.80;99.90;;;;;;5053337;28;20415;-49
2022/01/17 02:34:27;;;;;;;8.77;2.40;;;6.80;99.90;;;;;;5053172;28;20452;-49
2022/01/17 02:36:54;;;;;;;7.60;1.77;;;6.80;99.90;;;;;;5053110;28;20451;-49
2022/01/17 02:39:22;;;;;;;9.40;2.67;;;6.80;99.90;;;;;;5052767;28;20402;-49
2022/01/17 02:41:49;;;;;;;14.53;3.10;;;6.90;99.90;;;;;;5053048;28;20928;-49
2022/01/17 02:44:16;;;;;;;9.27;2.47;;;6.90;99.90;;;;;;5052979;28;20974;-49
2022/01/17 02:46:43;;;;;;;6.70;3.00;;;6.90;99.90;;;;;;5052922;28;20484;-48
2022/01/17 02:49:10;;;;;;;8.90;2.60;;;7.00;99.90;;;;;;5052403;28;20433;-49
2022/01/17 02:51:37;;;;;;;13.73;3.00;;;7.00;99.90;;;;;;5052824;28;20447;-49
2022/01/17 02:54:04;;;;;;;17.03;2.63;;;7.00;99.90;;;;;;5052591;28;20438;-49
2022/01/17 02:56:33;;;;;;;12.63;2.53;;;7.00;99.90;;;;;;5053032;28;20824;-49
2022/01/17 02:58:59;;;;;;;6.23;2.37;;;7.00;99.90;;;;;;5052308;28;20403;-49
2022/01/17 03:01:28;;;;;;;7.90;2.23;;;7.00;99.90;;;;;;5052718;28;20455;-49
2022/01/17 03:03:56;;;;;;;7.50;2.40;;;7.00;99.90;;;;;;5052498;28;20476;-48
2022/01/17 03:06:23;;;;;;;9.70;2.27;;;7.10;99.90;;;;;;5052514;28;20446;-48
2022/01/17 03:08:50;;;;;;;10.80;2.90;;;7.00;99.90;;;;;;5052126;28;20975;-49
2022/01/17 03:11:19;;;;;;;7.90;2.40;;;7.10;99.90;;;;;;5052447;28;20965;-49
2022/01/17 03:13:50;;;;;;;8.40;2.60;;;7.10;99.90;;;;;;5052000;28;20422;-49
2022/01/17 03:16:18;;;;;;;8.20;2.57;;;7.20;99.90;;;;;;5052432;28;20451;-49
2022/01/17 03:18:47;;;;;;;8.53;2.00;;;7.10;99.90;;;;;;5051908;28;20409;-49
2022/01/17 03:21:16;;;;;;;7.80;3.03;;;7.10;99.90;;;;;;5052264;28;20420;-48
2022/01/17 03:23:43;;;;;;;10.10;2.20;;;7.10;99.90;;;;;;5052437;28;20517;-48
2022/01/17 03:26:10;;;;;;;7.40;2.60;;;7.10;99.90;;;;;;5052421;28;20787;-49
2022/01/17 03:28:37;;;;;;;9.30;2.13;;;7.20;99.90;;;;;;5051810;28;20484;-49
2022/01/17 03:31:07;;;;;;;9.63;2.33;;;7.10;99.90;;;;;;5052167;28;20406;-48
2022/01/17 03:33:34;;;;;;;11.13;2.90;;;7.10;99.90;;;;;;5051985;28;20816;-48
2022/01/17 03:36:01;;;;;;;10.10;2.53;;;7.10;99.90;;;;;;5051982;28;20407;-49
2022/01/17 03:38:30;;;;;;;14.03;2.23;;;7.10;99.90;;;;;;5051632;28;20412;-48
2022/01/17 03:40:58;;;;;;;9.33;2.40;;;7.10;99.90;;;;;;5052126;28;20437;-48
2022/01/17 03:43:26;;;;;;;5.40;2.20;;;7.10;99.90;;;;;;5051973;28;20445;-49
2022/01/17 03:45:53;;;;;;;12.17;2.47;;;7.10;99.90;;;;;;5051915;28;20483;-49
2022/01/17 03:48:21;;;;;;;8.80;2.23;;;7.10;99.90;;;;;;5051318;28;20468;-49
2022/01/17 03:50:48;;;;;;;12.23;2.50;;;7.00;99.90;;;;;;5051802;28;20441;-49
2022/01/17 03:53:15;;;;;;;14.13;2.30;;;7.10;99.90;;;;;;5051845;28;20452;-48
2022/01/17 03:55:42;;;;;;;7.30;2.43;;;7.10;99.90;;;;;;5051647;28;20998;-49
2022/01/17 03:58:09;;;;;;;17.20;3.10;;;7.10;99.90;;;;;;5051379;28;20415;-49
2022/01/17 04:00:42;;;;;;;9.33;2.53;;;7.10;99.90;;;;;;5051580;28;20437;-49
2022/01/17 04:03:10;;;;;;;13.87;3.10;;;7.10;99.90;;;;;;5051645;28;20418;-48
2022/01/17 04:05:39;;;;;;;9.20;2.17;;;7.10;99.90;;;;;;5051665;28;20800;-49
2022/01/17 04:08:06;;;;;;;6.10;1.73;;;7.10;99.90;;;;;;5051172;28;20444;-49
2022/01/17 04:10:33;;;;;;;9.90;2.30;;;7.10;99.90;;;;;;5051523;28;20946;-49
2022/01/17 04:13:03;;;;;;;10.23;2.20;;;7.10;99.90;;;;;;5051545;28;20412;-49
2022/01/17 04:15:32;;;;;;;8.80;2.30;;;7.10;99.90;;;;;;5051325;28;20473;-49
2022/01/17 04:17:59;;;;;;;10.67;2.47;;;7.10;99.90;;;;;;5050955;28;20420;-48
2022/01/17 04:20:27;;;;;;;8.90;1.80;;;7.10;99.90;;;;;;5051626;28;20441;-49
2022/01/17 04:22:57;;;;;;;12.30;1.80;;;7.10;99.90;;;;;;5051593;28;20834;-48
2022/01/17 04:25:26;;;;;;;6.87;2.40;;;7.10;99.90;;;;;;5053135;28;20439;-48
2022/01/17 04:27:53;;;;;;;10.50;2.50;;;7.10;99.90;;;;;;5054985;28;20449;-48
2022/01/17 04:30:21;;;;;;;9.90;2.20;;;7.10;99.90;;;;;;5055611;28;20482;-49
2022/01/17 04:32:48;;;;;;;15.50;3.40;;;7.10;99.90;;;;;;5055554;28;20445;-49
2022/01/17 04:35:20;;;;;;;10.40;3.27;;;7.10;99.90;;;;;;5055332;28;20455;-49
2022/01/17 04:37:48;;;;;;;7.10;2.47;;;7.10;99.90;;;;;;5054933;28;20742;-48
2022/01/17 04:40:16;;;;;;;8.90;2.40;;;7.10;99.90;;;;;;5055401;28;20764;-49
2022/01/17 04:42:45;;;;;;;12.90;3.00;;;6.90;99.90;;;;;;5055246;28;20524;-48
2022/01/17 04:45:14;;;;;;;8.60;2.10;;;7.10;99.90;;;;;;5055149;28;20451;-49
2022/01/17 04:47:43;;;;;;;10.30;2.73;;;7.00;99.90;;;;;;5054803;28;20461;-49
2022/01/17 04:50:12;;;;;;;9.80;2.40;;;7.10;99.90;;;;;;5054936;28;20415;-49
2022/01/17 04:52:39;;;;;;;13.80;3.60;;;7.00;99.90;;;;;;5055051;28;20791;-49
2022/01/17 04:55:09;;;;;;;13.00;3.00;;;6.90;99.90;;;;;;5055341;28;20525;-49
2022/01/17 04:57:37;;;;;;;12.27;2.53;;;7.00;99.90;;;;;;5055043;28;20443;-47
2022/01/17 05:00:06;;;;;;;8.20;2.13;;;7.10;99.90;;;;;;5054828;28;20434;-47
2022/01/17 05:02:33;;;;;;;8.10;3.00;;;7.00;99.90;;;;;;5054827;28;20773;-47
2022/01/17 05:05:02;;;;;;;13.43;2.53;;;7.10;99.90;;;;;;5054744;28;20463;-48
2022/01/17 05:07:29;;;;;;;8.50;2.30;;;7.00;99.90;;;;;;5054751;28;20512;-47
2022/01/17 05:09:56;;;;;;;7.60;2.67;;;7.00;99.90;;;;;;5054358;28;20444;-47
2022/01/17 05:12:22;;;;;;;10.90;2.67;;;7.10;99.90;;;;;;5054722;28;20418;-48
2022/01/17 05:14:52;;;;;;;10.33;2.43;;;7.10;99.90;;;;;;5054547;28;20449;-49
2022/01/17 05:17:39;;;;;;;13.53;2.80;;;7.10;99.90;;;;;;5054427;28;20420;-47
2022/01/17 05:20:08;;;;;;;12.47;2.73;;;7.10;99.90;;;;;;5054562;28;20425;-47
2022/01/17 05:22:36;;;;;;;11.37;2.97;;;7.20;99.90;;;;;;5054519;28;20413;-50
2022/01/17 05:25:07;;;;;;;16.47;3.47;;;7.20;99.90;;;;;;5054203;28;20757;-48
2022/01/17 05:27:35;;;;;;;18.97;3.27;;;7.20;99.90;;;;;;5054207;28;20447;-48
2022/01/17 05:30:05;;;;;;;16.27;3.37;;;7.10;99.90;;;;;;5053989;28;20410;-47
2022/01/17 05:32:32;;;;;;;12.33;3.50;;;7.20;99.90;;;;;;5054503;28;20442;-48
2022/01/17 05:34:58;;;;;;;11.93;4.40;;;7.20;99.90;;;;;;5053992;28;20494;-47
2022/01/17 05:37:25;;;;;;;9.87;3.07;;;7.10;99.90;;;;;;5053784;28;20401;-48
2022/01/17 05:39:52;;;;;;;15.77;3.60;;;7.20;99.90;;;;;;5053782;28;20952;-48
2022/01/17 05:42:20;;;;;;;10.03;3.33;;;7.10;99.90;;;;;;5053964;28;20440;-47
2022/01/17 05:44:48;;;;;;;7.50;3.07;;;7.20;99.90;;;;;;5053986;28;20958;-48
2022/01/17 05:47:16;;;;;;;9.63;2.60;;;7.20;99.90;;;;;;5053864;28;20939;-48
2022/01/17 05:49:43;;;;;;;9.03;2.57;;;7.20;99.90;;;;;;5053860;28;20444;-47
2022/01/17 05:52:10;;;;;;;6.70;2.93;;;7.20;99.90;;;;;;5053755;28;20437;-48
2022/01/17 05:54:37;;;;;;;10.90;2.27;;;7.20;99.90;;;;;;5053326;28;20471;-48
2022/01/17 05:57:04;;;;;;;10.67;2.67;;;7.20;99.90;;;;;;5053623;28;20436;-49
2022/01/17 05:59:31;;;;;;;10.33;2.10;;;7.20;99.90;;;;;;5053286;28;20424;-48
2022/01/17 06:01:58;;;;;;;10.83;3.03;;;7.20;99.90;;;;;;5053772;28;20418;-48
2022/01/17 06:04:26;;;;;;;8.93;2.73;;;7.20;99.90;;;;;;5053528;28;21028;-48
2022/01/17 06:06:52;;;;;;;10.60;3.87;;;7.20;99.90;;;;;;5052104;28;20948;-48
2022/01/17 06:09:19;;;;;;;8.57;2.33;;;7.20;99.90;;;;;;5052979;28;20843;-46
2022/01/17 06:11:45;;;;;;;12.50;3.27;;;7.20;99.90;;;;;;5053097;28;20429;-48
2022/01/17 06:14:16;;;;;;;7.90;2.40;;;7.20;99.90;;;;;;5053236;28;20852;-48
2022/01/17 06:16:43;;;;;;;11.23;2.93;;;7.20;99.90;;;;;;5053110;28;20760;-47
2022/01/17 06:19:10;;;;;;;8.57;2.13;;;7.30;99.90;;;;;;5052918;28;20429;-48
2022/01/17 06:21:38;;;;;;;9.43;3.13;;;7.30;99.90;;;;;;5052774;28;20452;-47
2022/01/17 06:24:06;;;;;;;7.00;2.43;;;7.30;99.90;;;;;;5053083;28;20953;-47
2022/01/17 06:26:33;;;;;;;8.07;3.07;;;7.30;99.90;;;;;;5053047;28;20444;-47
2022/01/17 06:29:00;;;;;;;8.70;2.77;;;7.20;99.90;;;;;;5052508;28;20484;-48
2022/01/17 06:31:27;;;;;;;12.60;2.27;;;7.20;99.90;;;;;;5052553;28;20435;-47
2022/01/17 06:33:54;;;;;;;9.80;2.90;;;7.20;99.90;;;;;;5052047;28;20763;-48
2022/01/17 06:36:20;;;;;;;10.40;2.10;;;7.10;99.90;;;;;;5052395;28;20448;-51
2022/01/17 06:38:49;;;;;;;10.53;2.50;;;7.20;99.90;;;;;;5052214;28;20445;-48
2022/01/17 06:41:16;;;;;;;11.37;2.90;;;7.20;99.90;;;;;;5052373;28;20793;-49
2022/01/17 06:43:43;;;;;;;15.93;2.23;;;7.20;99.90;;;;;;5051735;28;20467;-49
2022/01/17 06:46:10;;;;;;;14.83;2.40;;;7.20;99.90;;;;;;5051928;28;20802;-49
2022/01/17 06:48:37;;;;;;;6.93;2.90;;;7.20;99.90;;;;;;5051087;28;20471;-49
2022/01/17 06:51:04;;;;;;;10.60;3.27;;;7.20;99.90;;;;;;5052419;28;20951;-49
2022/01/17 06:53:31;;;;;;;9.23;3.10;;;7.20;99.90;;;;;;5051768;28;20436;-50
2022/01/17 06:56:00;;;;;;;15.10;4.43;;;7.20;99.90;;;;;;5052202;28;20433;-49
2022/01/17 06:58:28;;;;;;;11.90;3.20;;;7.20;99.90;;;;;;5051507;28;20472;-50
2022/01/17 07:00:55;;;;;;;10.17;2.90;;;7.10;99.90;;;;;;5052298;28;20429;-47
2022/01/17 07:03:21;;;;;;;12.27;4.17;;;7.10;99.90;;;;;;5052174;28;20412;-47
2022/01/17 07:05:48;;;;;;;8.50;2.90;;;7.10;99.90;;;;;;5052221;28;20936;-48
2022/01/17 07:08:14;;;;;;;8.37;2.40;;;7.10;99.90;;;;;;5051577;28;20470;-49
2022/01/17 07:10:41;;;;;;;15.23;4.50;;;7.10;99.90;;;;;;5052323;28;20436;-50
2022/01/17 07:13:10;;;;;;;14.57;3.60;;;7.10;99.90;;;;;;5052011;28;20527;-50
2022/01/17 07:15:36;;;;;;;7.90;2.97;;;7.10;99.90;;;;;;5050431;28;20479;-49
2022/01/17 07:18:03;;;;;;;9.53;3.33;;;7.10;99.90;;;;;;5051597;28;20436;-51
2022/01/17 07:20:30;;;;;;;11.53;3.40;;;7.10;99.90;;;;;;5051862;28;20439;-48
2022/01/17 07:22:56;;;;;;;13.00;3.50;;;7.10;99.90;;;;;;5051631;28;20437;-48
2022/01/17 07:25:23;;;;;;;12.20;3.10;;;7.00;99.90;;;;;;5051612;28;20539;-50
2022/01/17 07:27:50;;;;;;;6.60;3.60;;;7.10;99.90;;;;;;5051334;28;20429;-51
2022/01/17 07:30:18;;;;;;;8.10;3.57;;;7.10;99.90;;;;;;5052246;28;20483;-48
2022/01/17 07:32:44;;;;;;;13.63;3.00;;;7.10;99.90;;;;;;5051384;28;20443;-49
2022/01/17 07:35:11;;;;;;;6.83;2.77;;;7.00;99.90;;;;;;5051689;28;20464;-48
2022/01/17 07:37:38;;;;;;;9.83;3.13;;;7.00;99.90;;;;;;5051038;28;20501;-51
2022/01/17 07:40:07;;;;;;;8.90;3.47;;;7.10;99.90;;;;;;5051121;28;20440;-48
2022/01/17 07:42:34;;;;;;;8.27;2.70;;;7.10;99.90;;;;;;5051017;28;20433;-49
2022/01/17 07:45:09;;;;;;;13.77;3.33;;;7.10;99.90;;;;;;5051452;28;20443;-48
2022/01/17 07:47:44;;;;;;;6.90;3.20;;;7.20;99.90;;;;;;5051186;28;20451;-51
2022/01/17 07:50:21;;;;;;;8.70;3.30;;;7.20;99.90;;;;;;5051383;28;20433;-48
2022/01/17 07:52:48;;;;;;;12.83;3.20;;;7.20;99.90;;;;;;5051445;28;20418;-49
2022/01/17 07:55:16;;;;;;;9.63;3.30;;;7.20;99.90;;;;;;5050894;28;20820;-49
2022/01/17 07:57:43;;;;;;;13.53;3.30;;;7.30;99.90;;;;;;5050558;28;20415;-50
2022/01/17 08:00:13;;;;;;;9.23;3.40;;;7.30;99.90;;;;;;5050976;28;20416;-48
2022/01/17 08:02:47;;;;;;;10.40;4.13;;;7.30;99.90;;;;;;5050956;28;20424;-49
2022/01/17 08:05:14;;;;;;;12.60;4.00;;;7.30;99.90;;;;;;5051010;28;20815;-49
2022/01/17 08:07:41;;;;;;;16.60;3.13;;;7.30;99.90;;;;;;5050909;28;20465;-49
2022/01/17 08:10:12;;;;;;;10.50;3.63;;;7.30;99.90;;;;;;5051130;28;20459;-48
2022/01/17 08:12:39;;;;;;;8.07;3.40;;;7.30;99.90;;;;;;5050024;28;20520;-48
2022/01/17 08:15:06;;;;;;;10.00;3.43;;;7.30;99.90;;;;;;5051159;28;20540;-48
2022/01/17 08:17:32;;;;;;;7.93;3.00;;;7.30;99.90;;;;;;5050921;28;20470;-49
2022/01/17 08:20:00;;;;;;;13.03;5.77;;;7.40;99.90;;;;;;5050503;28;20434;-49
2022/01/17 08:22:27;;;;;;;8.73;3.00;;;7.40;99.90;;;;;;5050899;28;20884;-48
2022/01/17 08:24:54;;;;;;;7.40;2.90;;;7.40;99.90;;;;;;5050628;28;20462;-48
2022/01/17 08:27:20;;;;;;;10.10;3.10;;;7.40;99.90;;;;;;5050859;28;20988;-48
2022/01/17 08:29:47;;;;;;;9.50;3.97;;;7.40;99.90;;;;;;5050177;28;20448;-49
2022/01/17 08:32:13;;;;;;;6.37;3.07;;;7.40;99.90;;;;;;5050850;28;20409;-48
2022/01/17 08:34:40;;;;;;;7.37;2.50;;;7.40;99.90;;;;;;5050589;28;20493;-49
2022/01/17 08:37:08;;;;;;;7.10;2.87;;;7.40;99.90;;;;;;5050717;28;20437;-48
2022/01/17 08:39:35;;;;;;;9.43;3.40;;;7.40;99.90;;;;;;5050633;28;20497;-48
2022/01/17 08:42:08;;;;;;;10.47;3.37;;;7.40;99.90;;;;;;5050526;28;20875;-48
2022/01/17 08:44:35;;;;;;;7.20;3.00;;;7.50;99.90;;;;;;5050837;28;20808;-48
2022/01/17 08:47:01;;;;;;;4.80;1.73;;;7.50;99.90;;;;;;5050549;28;20432;-48
2022/01/17 08:49:28;;;;;;;5.80;2.50;;;7.40;99.90;;;;;;5050612;28;20484;-48
2022/01/17 08:51:54;;;;;;;8.70;3.63;;;7.40;99.90;;;;;;5050657;28;20896;-48
2022/01/17 08:54:22;;;;;;;11.07;6.00;;;7.40;99.90;;;;;;5050122;28;20463;-48
2022/01/17 08:56:49;;;;;;;4.90;2.27;;;7.40;99.90;;;;;;5049883;28;20771;-48
2022/01/17 08:59:15;;;;;;;6.30;2.50;;;7.40;99.90;;;;;;5049515;28;20442;-48
2022/01/17 09:01:42;;;;;;;4.50;2.40;;;7.50;99.90;;;;;;5049537;28;20407;-49
2022/01/17 09:04:09;;;;;;;4.47;1.80;;;7.50;99.90;;;;;;5049412;28;20451;-48
2022/01/17 09:06:37;;;;;;;4.20;2.33;;;7.60;99.90;;;;;;5049744;28;20847;-48
2022/01/17 09:09:04;;;;;;;6.30;2.57;;;7.60;99.90;;;;;;5045364;28;20569;-48
2022/01/17 09:11:31;;;;;;;2.50;1.73;;;7.70;99.90;;;;;;5050069;28;20940;-49
2022/01/17 09:13:58;;;;;;;8.00;1.93;;;7.70;99.90;;;;;;5052774;28;20472;-49
2022/01/17 09:16:25;;;;;;;4.90;1.70;;;7.60;99.90;;;;;;5050891;28;20438;-49
2022/01/17 09:18:51;;;;;;;8.63;4.50;;;7.70;99.90;;;;;;5050710;28;20429;-49
2022/01/17 09:21:18;;;;;;;4.30;1.60;;;7.70;99.90;;;;;;5050667;28;20409;-50
2022/01/17 09:23:45;;;;;;;6.07;2.10;;;7.70;99.90;;;;;;5050495;28;20464;-48
2022/01/17 09:26:13;;;;;;;6.67;1.80;;;7.70;99.90;;;;;;5051366;28;20549;-48
2022/01/17 09:28:41;;;;;;;8.77;2.40;;;7.70;99.90;;;;;;5051950;28;20476;-48
2022/01/17 09:31:08;;;;;;;8.77;2.50;;;7.70;99.90;;;;;;5052521;28;20437;-48
2022/01/17 09:33:35;;;;;;;3.93;2.23;;;7.60;99.90;;;;;;5052250;28;20415;-50
2022/01/17 09:36:02;;;;;;;3.03;1.40;;;7.60;99.90;;;;;;5051863;28;20423;-48
2022/01/17 09:38:28;;;;;;;6.20;2.03;;;7.50;99.90;;;;;;5052017;28;20925;-48
2022/01/17 09:40:55;;;;;;;8.80;1.90;;;7.50;99.90;;;;;;5052517;28;20810;-48
2022/01/17 09:43:22;;;;;;;5.70;1.97;;;7.50;99.90;;;;;;5051993;28;20431;-48
2022/01/17 09:45:50;;;;;;;4.93;2.40;;;7.50;99.90;;;;;;5051839;28;20439;-48
2022/01/17 09:48:20;;;;;;;9.33;1.70;;;7.50;99.90;;;;;;5051605;28;20412;-48
2022/01/17 09:51:00;;;;;;;5.03;2.20;;;7.40;99.90;;;;;;5050768;28;20930;-49
2022/01/17 09:53:29;;;;;;;4.40;1.50;;;7.30;99.90;;;;;;5013205;28;1078802;-49
2022/01/17 09:55:58;;;;;;;3.80;1.47;;;7.20;99.90;;;;;;5052395;28;20409;-48
2022/01/17 09:58:26;;;;;;;3.17;1.47;;;7.00;99.90;;;;;;5051415;28;20792;-48
2022/01/17 10:00:54;;;;;;;5.60;1.60;;;6.80;99.90;;;;;;5052491;28;20437;-49
2022/01/17 10:03:21;;;;;;;4.33;1.43;;;6.70;99.90;;;;;;5052721;28;20481;-49
2022/01/17 10:05:48;;;;;;;4.23;1.40;;;6.70;99.90;;;;;;5053239;28;20978;-48
2022/01/17 10:08:18;;;;;;;5.63;1.33;;;6.70;99.90;;;;;;5052986;28;20810;-48
2022/01/17 10:10:50;;;;;;;7.67;1.50;;;6.70;99.90;;;;;;5052794;28;20518;-48
2022/01/17 10:13:24;;;;;;;5.40;1.73;;;6.80;99.90;;;;;;5053167;28;20414;-48
2022/01/17 10:16:06;;;;;;;4.00;1.20;;;6.90;99.90;;;;;;5052896;28;20940;-48
2022/01/17 10:18:39;;;;;;;3.63;1.43;;;7.00;99.90;;;;;;5053039;28;20965;-48
2022/01/17 10:21:12;;;;;;;9.70;1.83;;;7.00;99.90;;;;;;5053136;28;20819;-48
2022/01/17 10:35:11;;;;;;;6.20;1.43;;;7.30;99.90;;;;;;5052138;28;20461;-49
2022/01/17 10:37:37;;;;;;;6.47;1.70;;;7.40;99.90;;;;;;5052054;28;20452;-48
2022/01/17 10:40:07;;;;;;;6.23;1.80;;;7.40;99.90;;;;;;5052525;28;20766;-49
2022/01/17 10:42:40;;;;;;;4.87;1.60;;;7.40;99.90;;;;;;5052214;28;20567;-48
2022/01/17 10:45:08;;;;;;;7.90;2.00;;;7.40;99.90;;;;;;5052484;28;20500;-49
2022/01/17 10:47:42;;;;;;;11.00;1.90;;;7.40;99.90;;;;;;5052045;28;20430;-47
2022/01/17 10:50:12;;;;;;;3.77;1.67;;;7.40;99.90;;;;;;5052446;28;20550;-48
2022/01/17 10:52:42;;;;;;;13.63;2.03;;;7.30;99.90;;;;;;5052285;28;20445;-48
2022/01/17 10:55:13;;;;;;;5.40;2.00;;;7.30;99.90;;;;;;5077920;22;20502;-48
2022/01/17 10:57:42;;;;;;;5.90;1.77;;;7.30;99.90;;;;;;5054123;28;21027;-48
2022/01/17 11:00:11;;;;;;;6.80;1.80;;;7.30;99.90;;;;;;5052877;28;20474;-48
2022/01/17 11:02:43;;;;;;;7.90;2.50;;;7.20;99.90;;;;;;5053943;28;20903;-48
2022/01/17 11:05:11;;;;;;;9.00;3.07;;;7.20;99.90;;;;;;5055101;28;20461;-48
2022/01/17 11:07:44;;;;;;;7.07;1.50;;;7.20;99.90;;;;;;5053059;28;20524;-49
2022/01/17 11:10:20;;;;;;;5.40;1.50;;;7.00;99.90;;;;;;5054905;28;20486;-48
2022/01/17 11:12:48;;;;;;;3.97;1.40;;;6.70;99.90;;;;;;5054257;28;20435;-48
2022/01/17 11:15:16;;;;;;;4.40;1.20;;;6.50;99.90;;;;;;5055052;28;20457;-48
2022/01/17 11:17:50;;;;;;;4.20;1.33;;;6.30;99.90;;;;;;5054069;28;20451;-48
2022/01/17 11:20:17;;;;;;;5.17;1.57;;;6.10;99.90;;;;;;5053814;28;20448;-49
2022/01/17 11:22:46;;;;;;;2.63;1.83;;;5.90;99.90;;;;;;5054147;28;20446;-48
2022/01/17 11:25:16;;;;;;;8.63;2.27;;;5.70;99.90;;;;;;5053652;28;20460;-49
2022/01/17 11:27:43;;;;;;;11.27;2.70;;;5.60;99.90;;;;;;5052802;28;20524;-48
2022/01/17 11:30:11;;;;;;;7.03;1.73;;;5.50;99.90;;;;;;5052948;28;20476;-47
2022/01/17 11:32:38;;;;;;;4.93;1.80;;;5.50;99.90;;;;;;5052978;28;20432;-49
2022/01/17 11:35:08;;;;;;;6.87;2.20;;;5.50;99.90;;;;;;5053198;28;20455;-48
2022/01/17 11:37:38;;;;;;;6.63;1.90;;;5.40;99.90;;;;;;5054082;28;20421;-48
2022/01/17 11:40:09;;;;;;;13.63;2.27;;;5.30;99.90;;;;;;5054360;28;20410;-47
2022/01/17 11:42:39;;;;;;;7.53;2.27;;;5.40;99.90;;;;;;5053964;28;20419;-48
2022/01/17 11:45:34;;;;;;;11.77;2.25;;;5.30;99.90;;;;;;5053372;28;20434;-48
2022/01/17 11:48:03;;;;;;;12.93;2.97;;;5.30;99.90;;;;;;5053485;28;20223;-49
2022/01/17 11:50:45;;;;;;;6.63;1.70;;;5.30;99.90;;;;;;5053384;28;20501;-48
2022/01/17 11:53:39;;;;;;;6.47;2.17;;;5.30;99.90;;;;;;5053704;28;20431;-48
2022/01/17 11:56:06;;;;;;;8.43;2.38;;;5.30;99.90;;;;;;5053344;28;20951;-48
2022/01/17 11:58:38;;;;;;;7.22;2.90;;;5.30;99.90;;;;;;5052710;28;20192;-49
2022/01/17 12:01:14;;;;;;;7.85;1.70;;;5.30;99.90;;;;;;5053671;28;20215;-49
2022/01/17 12:03:43;;;;;;;10.00;2.40;;;5.30;99.90;;;;;;5052554;28;20210;-49
2022/01/17 12:06:25;;;;;;;7.10;2.75;;;5.20;99.90;;;;;;5052330;28;20529;-49
2022/01/17 12:09:21;;;;;;;8.20;1.77;;;5.20;99.90;;;;;;5052541;28;20204;-47
2022/01/17 12:11:49;;;;;;;9.40;2.07;;;5.20;99.90;;;;;;5052459;28;20420;-48
2022/01/17 12:14:27;;;;;;;7.73;2.07;;;5.30;99.90;;;;;;5053001;28;20570;-48
2022/01/17 12:16:56;;;;;;;7.60;2.27;;;5.30;99.90;;;;;;5033973;28;20446;-47
2022/01/17 12:19:22;;;;;;;9.70;2.00;;;5.20;99.90;;;;;;5052333;28;20443;-48
2022/01/17 12:21:54;;;;;;;9.80;2.30;;;5.30;99.90;;;;;;5051792;28;20435;-48
2022/01/17 12:24:40;;;;;;;6.20;1.95;;;5.20;99.90;;;;;;5053298;28;20463;-49
2022/01/17 12:27:16;;;;;;;7.22;2.92;;;5.30;99.90;;;;;;5052099;28;20283;-49
2022/01/17 12:29:47;;;;;;;6.23;2.40;;;5.30;99.90;;;;;;5051204;28;20225;-48
2022/01/17 12:32:53;;;;;;;4.53;1.67;;;5.40;99.90;;;;;;5050787;28;20431;-48
2022/01/17 12:35:29;;;;;;;7.45;2.40;;;5.40;99.90;;;;;;5051935;28;20233;-49
2022/01/17 12:38:05;;;;;;;5.93;2.45;;;5.40;99.90;;;;;;5051613;28;21012;-49
2022/01/17 12:40:36;;;;;;;8.45;2.13;;;5.50;99.90;;;;;;5034031;28;20249;-49
2022/01/17 12:43:05;;;;;;;5.43;2.30;;;5.50;99.90;;;;;;5052558;28;20200;-49
2022/01/17 12:45:35;;;;;;;5.20;2.30;;;5.50;99.90;;;;;;5052364;28;20472;-49
2022/01/17 12:48:05;;;;;;;5.32;1.80;;;5.60;99.90;;;;;;5056194;28;20438;-49
2022/01/17 12:50:33;;;;;;;4.33;2.10;;;5.60;99.90;;;;;;5056504;28;20229;-48
2022/01/17 12:53:01;;;;;;;11.47;3.03;;;5.60;99.90;;;;;;5056540;28;20462;-49
2022/01/17 12:55:37;;;;;;;5.10;2.67;;;5.70;99.90;;;;;;5056615;28;20473;-46
2022/01/17 12:58:14;;;;;;;5.93;2.37;;;5.70;99.90;;;;;;5056548;28;20742;-49
2022/01/17 13:00:45;;;;;;;8.83;2.80;;;5.80;99.90;;;;;;5056072;28;20420;-49
2022/01/17 13:03:14;;;;;;;7.73;3.03;;;5.80;99.90;;;;;;5056538;28;20410;-48
2022/01/17 13:05:41;;;;;;;5.97;2.17;;;5.80;99.90;;;;;;5056433;28;20505;-48
2022/01/17 13:08:08;;;;;;;7.90;2.00;;;5.80;99.30;;;;;;5056018;28;20768;-48
2022/01/17 13:10:36;;;;;;;4.27;2.30;;;5.70;99.80;;;;;;5056264;28;20483;-47
2022/01/17 13:13:03;;;;;;;6.50;2.50;;;5.70;99.90;;;;;;5055720;28;20506;-50
2022/01/17 13:15:30;;;;;;;6.37;3.20;;;5.60;99.50;;;;;;5055052;28;20455;-48